Terminal Aerodrome Forecast
Issued by NWS Quad Cities IA IL

Home | Current Version | Previous Version | Text Only | Print | Product List | Glossary On
Versions: 1 2 3 4 5 6 7 8 9 10 11 12 13 14 15 16 17 18 19 20 21 22
000
FTUS43 KDVN 221658 AAA
TAFMLI
TAF AMD
KMLI 221658Z 2217/2312 20010KT P6SM SCT050
     FM230000 20010KT P6SM BKN050
     FM230500 23009KT 3SM TSRA BKN040CB
     FM230800 31011KT P6SM BKN030=

USA.gov is the U.S. government's official web portal to all federal, state and local government web resources and services.